createdAt,value
2023-05-19T00:01:36.882Z,96.14
2023-05-19T00:04:04.090Z,95.85
2023-05-19T00:06:31.884Z,95.79
2023-05-19T00:08:59.355Z,95.13
2023-05-19T00:11:28.071Z,93.74
2023-05-19T00:13:55.478Z,92.70
2023-05-19T00:16:22.417Z,92.70
2023-05-19T00:18:49.617Z,92.92
2023-05-19T00:21:16.390Z,91.73
2023-05-19T00:23:43.122Z,91.69
2023-05-19T00:26:10.174Z,91.61
2023-05-19T00:28:38.221Z,91.69
2023-05-19T00:31:05.052Z,91.71
2023-05-19T00:33:31.849Z,91.90
2023-05-19T00:35:58.576Z,92.82
2023-05-19T00:38:25.363Z,92.25
2023-05-19T00:40:52.078Z,92.39
2023-05-19T00:43:18.731Z,93.57
2023-05-19T00:45:47.061Z,93.99
2023-05-19T00:48:13.801Z,93.43
2023-05-19T00:50:40.472Z,93.67
2023-05-19T00:53:07.277Z,93.79
2023-05-19T00:55:34.005Z,93.29
2023-05-19T00:58:00.705Z,93.79
2023-05-19T01:00:27.443Z,94.63
2023-05-19T01:02:55.981Z,94.89
2023-05-19T01:05:22.811Z,95.50
2023-05-19T01:07:49.516Z,95.73
2023-05-19T01:10:16.581Z,95.86
2023-05-19T01:12:43.300Z,95.47
2023-05-19T01:15:11.424Z,95.64
2023-05-19T01:17:40.240Z,95.31
2023-05-19T01:20:10.963Z,95.04
2023-05-19T01:22:44.533Z,95.68
2023-05-19T01:25:47.199Z,96.49
2023-05-19T01:28:31.024Z,95.28
2023-05-19T01:30:59.640Z,95.81
2023-05-19T01:33:26.905Z,95.93
2023-05-19T01:35:53.686Z,96.62
2023-05-19T01:38:20.591Z,96.92
2023-05-19T01:40:47.491Z,97.44
2023-05-19T01:43:16.848Z,97.51
2023-05-19T01:45:43.596Z,97.61
2023-05-19T01:48:11.745Z,97.99
2023-05-19T01:50:38.480Z,98.10
2023-05-19T01:53:05.216Z,97.69
2023-05-19T01:55:31.969Z,97.09
2023-05-19T01:58:06.933Z,97.34
2023-05-19T02:00:39.531Z,96.10
2023-05-19T02:03:13.237Z,95.45
2023-05-19T02:05:55.570Z,95.45
2023-05-19T02:08:26.415Z,94.88
2023-05-19T02:11:00.822Z,95.32
2023-05-19T02:13:29.274Z,94.91
2023-05-19T02:15:56.010Z,95.05
2023-05-19T02:18:24.153Z,95.82
2023-05-19T02:20:50.888Z,96.69
2023-05-19T02:23:17.567Z,97.01
2023-05-19T02:25:44.310Z,97.42
2023-05-19T02:28:11.106Z,97.63
2023-05-19T02:30:37.788Z,95.67
2023-05-19T02:33:04.537Z,96.82
2023-05-19T02:35:32.671Z,97.16
2023-05-19T02:37:59.390Z,96.95
2023-05-19T02:40:26.119Z,97.46
2023-05-19T02:42:52.859Z,97.20
2023-05-19T02:45:19.580Z,97.41
2023-05-19T02:47:46.341Z,97.64
2023-05-19T02:50:13.117Z,97.82
2023-05-19T02:52:41.236Z,97.68
2023-05-19T02:55:08.717Z,97.30
2023-05-19T02:57:35.486Z,97.49
2023-05-19T03:00:02.256Z,97.49
2023-05-19T03:02:29.074Z,97.63
2023-05-19T03:04:55.890Z,97.91
2023-05-19T03:07:22.602Z,98.50
2023-05-19T03:09:50.903Z,97.35
2023-05-19T03:12:17.691Z,97.26
2023-05-19T03:14:44.426Z,98.07
2023-05-19T03:17:11.178Z,98.06
2023-05-19T03:19:38.077Z,98.40
2023-05-19T03:22:05.046Z,98.06
2023-05-19T03:24:31.781Z,97.76
2023-05-19T03:26:59.882Z,97.55
2023-05-19T03:29:26.628Z,97.93
2023-05-19T03:31:53.354Z,98.27
2023-05-19T03:34:20.713Z,98.35
2023-05-19T03:36:47.595Z,98.36
2023-05-19T03:39:14.290Z,98.35
2023-05-19T03:41:41.037Z,97.78
2023-05-19T03:44:09.175Z,97.14
2023-05-19T03:46:35.912Z,97.11
2023-05-19T03:49:02.665Z,97.01
2023-05-19T03:51:29.377Z,97.20
2023-05-19T03:53:56.112Z,95.57
2023-05-19T03:56:22.897Z,96.79
2023-05-19T03:58:49.638Z,94.88
2023-05-19T04:01:17.910Z,94.73
2023-05-19T04:03:44.780Z,95.89
2023-05-19T04:06:11.607Z,95.22
2023-05-19T04:08:38.767Z,95.13
2023-05-19T04:11:06.831Z,94.56
2023-05-19T04:13:33.740Z,93.63
2023-05-19T04:16:00.522Z,92.12
2023-05-19T04:18:29.385Z,92.42
2023-05-19T04:20:56.264Z,92.17
2023-05-19T04:23:23.004Z,90.71
2023-05-19T04:25:49.951Z,88.38
2023-05-19T04:28:16.623Z,87.57
2023-05-19T04:30:43.313Z,87.82
2023-05-19T04:33:10.255Z,83.12
2023-05-19T04:35:38.522Z,82.92
2023-05-19T04:38:05.265Z,80.87
2023-05-19T04:40:32.187Z,79.81
2023-05-19T04:42:59.163Z,79.87
2023-05-19T04:45:25.924Z,75.85
2023-05-19T04:47:52.785Z,75.92
2023-05-19T04:50:19.575Z,75.50
2023-05-19T04:52:47.853Z,77.58
2023-05-19T05:01:03.142Z,76.48
2023-05-19T05:03:56.482Z,76.14
2023-05-19T05:06:23.280Z,76.47
2023-05-19T05:08:51.344Z,79.83
2023-05-19T05:11:18.952Z,81.02
2023-05-19T05:13:46.725Z,78.39
2023-05-19T05:16:14.601Z,77.53
2023-05-19T05:18:44.383Z,76.76
2023-05-19T05:21:12.427Z,76.78
2023-05-19T05:23:39.751Z,76.17
2023-05-19T05:26:10.136Z,77.16
2023-05-19T05:28:37.273Z,75.00
2023-05-19T05:31:04.141Z,71.35
2023-05-19T05:33:30.907Z,73.95
2023-05-19T05:35:57.791Z,73.23
2023-05-19T05:38:24.653Z,73.14
2023-05-19T05:40:51.419Z,76.29
2023-05-19T05:43:19.550Z,74.64
2023-05-19T05:45:46.293Z,72.68
2023-05-19T05:48:13.734Z,67.59
2023-05-19T05:50:40.472Z,66.64
2023-05-19T05:53:07.188Z,63.64
2023-05-19T05:55:35.082Z,62.93
2023-05-19T05:58:02.092Z,60.06
2023-05-19T06:00:30.441Z,64.40
2023-05-19T06:02:57.468Z,58.86
2023-05-19T06:05:24.433Z,63.15
2023-05-19T06:07:51.188Z,61.05
2023-05-19T06:10:17.938Z,57.11
2023-05-19T06:12:44.737Z,61.48
2023-05-19T06:15:11.437Z,64.42
2023-05-19T06:17:39.921Z,67.55
2023-05-19T06:20:07.972Z,66.37
2023-05-19T06:22:34.711Z,61.66
2023-05-19T06:25:01.437Z,62.17
2023-05-19T06:27:28.133Z,60.36
2023-05-19T06:29:54.895Z,61.52
2023-05-19T06:32:21.668Z,62.06
2023-05-19T06:34:50.423Z,60.92
2023-05-19T06:37:17.109Z,65.41
2023-05-19T06:39:43.813Z,61.01
2023-05-19T06:42:10.588Z,52.18
2023-05-19T06:44:37.331Z,50.51
2023-05-19T06:47:04.486Z,52.59
2023-05-19T06:49:31.324Z,51.11
2023-05-19T06:51:59.732Z,52.42
2023-05-19T06:54:26.377Z,49.84
2023-05-19T06:56:53.146Z,45.65
2023-05-19T06:59:19.833Z,46.67
2023-05-19T07:01:46.600Z,48.46
2023-05-19T07:04:13.460Z,46.42
2023-05-19T07:06:40.447Z,47.57
2023-05-19T07:09:08.873Z,49.63
2023-05-19T07:11:36.051Z,51.80
2023-05-19T07:14:02.754Z,46.78
2023-05-19T07:16:29.998Z,43.49
2023-05-19T07:18:56.813Z,51.73
2023-05-19T07:21:23.518Z,46.39
2023-05-19T07:23:51.013Z,46.96
2023-05-19T07:26:20.181Z,42.33
2023-05-19T07:28:46.994Z,38.34
2023-05-19T07:31:13.777Z,36.14
2023-05-19T07:33:40.705Z,41.58
2023-05-19T07:36:07.492Z,35.44
2023-05-19T07:38:34.214Z,38.92
2023-05-19T07:41:01.114Z,37.17
2023-05-19T07:43:29.633Z,37.75
2023-05-19T07:45:56.495Z,38.18
2023-05-19T07:48:23.367Z,33.01
2023-05-19T07:50:50.681Z,39.80
2023-05-19T07:53:17.408Z,37.45
2023-05-19T07:55:44.180Z,38.39
2023-05-19T07:58:10.915Z,43.59
2023-05-19T08:00:39.127Z,49.15
2023-05-19T08:03:06.046Z,42.40
2023-05-19T08:05:32.942Z,38.66
2023-05-19T08:08:01.095Z,37.10
2023-05-19T08:10:28.064Z,36.64
2023-05-19T08:12:54.822Z,38.66
2023-05-19T08:15:21.561Z,38.32
2023-05-19T08:17:50.012Z,35.76
2023-05-19T08:20:16.783Z,46.28
2023-05-19T08:22:43.484Z,41.97
2023-05-19T08:25:10.468Z,44.59
2023-05-19T08:27:37.292Z,43.74
2023-05-19T08:30:04.764Z,33.11
2023-05-19T08:32:31.550Z,35.24
2023-05-19T08:34:59.876Z,35.53
2023-05-19T08:37:26.654Z,36.77
2023-05-19T08:39:53.399Z,36.86
2023-05-19T08:42:20.363Z,37.96
2023-05-19T08:44:47.054Z,39.22
2023-05-19T08:47:13.873Z,37.26
2023-05-19T08:49:43.638Z,34.24
2023-05-19T08:52:19.294Z,33.50
2023-05-19T08:54:46.828Z,33.98
2023-05-19T08:57:13.493Z,36.23
2023-05-19T08:59:40.521Z,36.50
2023-05-19T09:02:07.216Z,41.47
2023-05-19T09:04:34.090Z,43.26
2023-05-19T09:07:01.042Z,45.49
2023-05-19T09:09:29.184Z,46.35
2023-05-19T09:11:56.091Z,47.20
2023-05-19T09:14:22.906Z,47.49
2023-05-19T09:16:49.822Z,47.56
2023-05-19T09:19:16.770Z,51.34
2023-05-19T09:21:44.613Z,48.10
2023-05-19T09:24:11.436Z,45.79
2023-05-19T09:26:40.040Z,38.73
2023-05-19T09:29:13.276Z,34.16
2023-05-19T09:31:40.327Z,32.82
2023-05-19T09:34:12.820Z,35.45
2023-05-19T09:36:40.355Z,38.77
2023-05-19T09:39:13.161Z,49.08
2023-05-19T09:41:41.306Z,49.51
2023-05-19T09:44:08.030Z,40.53
2023-05-19T09:46:34.889Z,36.47
2023-05-19T09:49:08.508Z,33.78
2023-05-19T09:51:35.868Z,37.65
2023-05-19T09:54:03.013Z,46.44
2023-05-19T09:56:31.993Z,41.94
2023-05-19T09:59:00.728Z,38.36
2023-05-19T10:01:27.587Z,36.65
2023-05-19T10:03:54.408Z,38.29
2023-05-19T10:06:21.355Z,38.90
2023-05-19T10:08:48.097Z,39.02
2023-05-19T10:11:14.892Z,42.64
2023-05-19T10:13:41.628Z,43.64
2023-05-19T10:16:10.401Z,44.08
2023-05-19T10:18:39.122Z,45.14
2023-05-19T10:21:07.486Z,45.11
2023-05-19T10:23:34.575Z,42.89
2023-05-19T10:26:01.761Z,36.07
2023-05-19T10:28:31.815Z,46.28
2023-05-19T10:30:59.271Z,38.27
2023-05-19T10:33:32.075Z,37.06
2023-05-19T10:36:14.987Z,32.04
2023-05-19T10:38:42.271Z,33.11
2023-05-19T10:41:11.525Z,39.53
2023-05-19T10:43:46.834Z,43.44
2023-05-19T10:46:13.736Z,32.70
2023-05-19T10:48:44.032Z,40.45
2023-05-19T10:51:14.327Z,33.17
2023-05-19T10:53:41.543Z,39.68
2023-05-19T10:56:08.252Z,39.35
2023-05-19T10:58:49.740Z,41.70
2023-05-19T11:01:17.031Z,47.09
2023-05-19T11:03:48.499Z,40.95
2023-05-19T11:06:25.001Z,37.62
2023-05-19T11:08:58.261Z,38.29
2023-05-19T11:11:25.062Z,35.61
2023-05-19T11:13:52.353Z,36.26
2023-05-19T11:16:19.666Z,37.43
2023-05-19T11:18:49.845Z,42.14
2023-05-19T11:21:16.606Z,39.47
2023-05-19T11:23:43.446Z,41.33
2023-05-19T11:26:10.245Z,39.43
2023-05-19T11:28:36.960Z,36.89
2023-05-19T11:31:04.319Z,37.06
2023-05-19T11:33:32.378Z,38.54
2023-05-19T11:36:00.811Z,37.80
2023-05-19T11:38:28.198Z,38.75
2023-05-19T11:40:55.182Z,38.25
2023-05-19T11:43:23.236Z,37.42
2023-05-19T11:45:49.973Z,39.69
2023-05-19T11:48:16.788Z,41.31
2023-05-19T11:50:43.671Z,39.13
2023-05-19T11:53:12.974Z,39.49
2023-05-19T11:55:42.428Z,41.16
2023-05-19T11:58:09.118Z,33.39
2023-05-19T12:00:38.612Z,27.29
2023-05-19T12:03:05.787Z,31.41
2023-05-19T12:05:35.484Z,32.40
2023-05-19T12:08:05.806Z,34.08
2023-05-19T12:10:33.894Z,37.35
2023-05-19T12:13:00.645Z,47.04
2023-05-19T12:15:27.511Z,36.61
2023-05-19T12:17:56.993Z,34.40
2023-05-19T12:20:23.734Z,30.19
2023-05-19T12:22:51.151Z,27.74
2023-05-19T12:25:17.911Z,33.39
2023-05-19T12:27:46.046Z,28.71
2023-05-19T12:30:13.080Z,27.86
2023-05-19T12:32:39.820Z,37.37
2023-05-19T12:35:07.290Z,37.83
2023-05-19T12:37:34.003Z,39.62
2023-05-19T12:40:00.947Z,34.40
2023-05-19T12:42:28.136Z,36.70
2023-05-19T12:44:56.278Z,29.15
2023-05-19T12:47:23.043Z,34.35
2023-05-19T12:49:55.697Z,41.18
2023-05-19T12:52:22.719Z,38.92
2023-05-19T12:54:49.505Z,36.45
2023-05-19T12:57:16.706Z,35.23
2023-05-19T12:59:43.965Z,32.78
2023-05-19T13:02:12.758Z,37.13
2023-05-19T13:04:39.636Z,38.21
2023-05-19T13:07:06.338Z,38.71
2023-05-19T13:09:33.118Z,37.62
2023-05-19T13:11:59.862Z,42.78
2023-05-19T13:14:26.616Z,41.00
2023-05-19T13:16:53.449Z,38.83
2023-05-19T13:19:25.676Z,33.87
2023-05-19T13:21:53.005Z,32.60
2023-05-19T13:24:19.770Z,36.87
2023-05-19T13:26:46.510Z,32.39
2023-05-19T13:29:13.338Z,34.36
2023-05-19T13:31:40.110Z,37.22
2023-05-19T13:34:07.104Z,38.09
2023-05-19T13:36:35.349Z,45.83
2023-05-19T13:39:02.687Z,47.41
2023-05-19T13:41:29.499Z,46.31
2023-05-19T13:43:57.878Z,39.67
2023-05-19T13:46:36.644Z,36.60
2023-05-19T13:49:11.342Z,38.66
2023-05-19T13:51:42.191Z,44.56
2023-05-19T13:54:08.893Z,43.05
2023-05-19T13:56:35.696Z,47.20
2023-05-19T13:59:03.087Z,47.03
2023-05-19T14:01:29.898Z,46.40
2023-05-19T14:03:56.941Z,48.04
2023-05-19T14:06:23.943Z,45.94
2023-05-19T14:08:52.496Z,45.95
2023-05-19T14:11:19.429Z,43.46
2023-05-19T14:13:50.564Z,41.59
2023-05-19T14:16:19.292Z,43.24
2023-05-19T14:18:46.466Z,39.67
2023-05-19T14:21:13.213Z,37.75
2023-05-19T14:23:39.946Z,46.69
2023-05-19T14:26:08.257Z,45.63
2023-05-19T14:28:34.979Z,43.12
2023-05-19T14:31:01.675Z,41.62
2023-05-19T14:33:29.744Z,40.31
2023-05-19T14:35:59.402Z,35.05
2023-05-19T14:38:27.535Z,33.06
2023-05-19T14:40:54.463Z,33.15
2023-05-19T14:43:22.794Z,35.71
2023-05-19T14:45:49.570Z,38.99
2023-05-19T14:48:16.376Z,42.25
2023-05-19T14:50:43.401Z,41.16
2023-05-19T14:53:10.215Z,40.24
2023-05-19T14:55:36.995Z,44.51
2023-05-19T14:58:07.896Z,46.35
2023-05-19T15:00:44.985Z,43.71
2023-05-19T15:03:11.796Z,47.03
2023-05-19T15:05:38.636Z,48.45
2023-05-19T15:08:06.389Z,46.40
2023-05-19T15:10:35.130Z,47.11
2023-05-19T15:13:01.904Z,48.36
2023-05-19T15:15:28.719Z,45.79
2023-05-19T15:17:56.906Z,45.89
2023-05-19T15:20:23.899Z,46.78
2023-05-19T15:22:50.669Z,45.06
2023-05-19T15:25:17.379Z,43.69
2023-05-19T15:27:44.062Z,41.75
2023-05-19T15:30:11.309Z,44.45
2023-05-19T15:32:38.112Z,45.01
2023-05-19T15:35:07.555Z,44.29
2023-05-19T15:37:34.409Z,46.91
2023-05-19T15:40:01.194Z,48.99
2023-05-19T15:42:27.999Z,49.49
2023-05-19T15:44:55.137Z,50.06
2023-05-19T15:47:21.862Z,49.14
2023-05-19T15:49:48.584Z,46.35
2023-05-19T15:52:16.775Z,47.56
2023-05-19T15:54:43.754Z,48.90
2023-05-19T15:57:10.423Z,50.87
2023-05-19T15:59:37.158Z,49.11
2023-05-19T16:02:04.258Z,49.59
2023-05-19T16:04:31.018Z,51.28
2023-05-19T16:06:57.824Z,51.57
2023-05-19T16:09:25.966Z,51.88
2023-05-19T16:11:52.725Z,53.18
2023-05-19T16:14:19.543Z,51.88
2023-05-19T16:16:46.389Z,51.30
2023-05-19T16:19:13.496Z,52.38
2023-05-19T16:21:40.422Z,52.63
2023-05-19T16:24:07.149Z,55.11
2023-05-19T16:26:35.852Z,56.68
2023-05-19T16:29:02.637Z,57.10
2023-05-19T16:31:29.456Z,57.80
2023-05-19T16:33:56.254Z,57.56
2023-05-19T16:36:23.106Z,58.60
2023-05-19T16:38:49.791Z,59.46
2023-05-19T16:41:16.530Z,59.67
2023-05-19T16:43:44.670Z,60.29
2023-05-19T16:46:11.410Z,59.60
2023-05-19T16:48:38.127Z,59.67
2023-05-19T16:51:04.925Z,60.39
2023-05-19T16:53:31.668Z,59.47
2023-05-19T16:55:58.376Z,60.69
2023-05-19T16:58:25.188Z,61.38
2023-05-19T17:00:53.562Z,62.14
2023-05-19T17:03:20.634Z,62.77
2023-05-19T17:05:47.524Z,63.31
2023-05-19T17:08:15.007Z,63.35
2023-05-19T17:10:41.694Z,63.98
2023-05-19T17:13:08.419Z,64.14
2023-05-19T17:15:35.146Z,65.02
2023-05-19T17:18:03.452Z,65.62
2023-05-19T17:20:30.219Z,66.04
2023-05-19T17:22:56.962Z,65.93
2023-05-19T17:25:24.865Z,66.44
2023-05-19T17:27:51.591Z,66.71
2023-05-19T17:30:18.282Z,67.05
2023-05-19T17:32:45.609Z,66.77
2023-05-19T17:35:14.864Z,68.03
2023-05-19T17:37:41.624Z,68.44
2023-05-19T17:40:09.535Z,68.67
2023-05-19T17:42:36.370Z,70.14
2023-05-19T17:45:03.385Z,70.38
2023-05-19T17:47:30.286Z,71.46
2023-05-19T17:49:57.016Z,74.29
2023-05-19T17:52:25.673Z,75.70
2023-05-19T17:54:53.017Z,78.12
2023-05-19T17:57:19.731Z,79.94
2023-05-19T17:59:47.005Z,80.20
2023-05-19T18:02:14.693Z,81.34
2023-05-19T18:04:42.598Z,81.57
2023-05-19T18:07:09.372Z,82.17
2023-05-19T18:09:38.037Z,83.05
2023-05-19T18:12:05.892Z,84.14
2023-05-19T18:14:32.658Z,85.51
2023-05-19T18:16:59.893Z,87.55
2023-05-19T18:19:26.725Z,88.09
2023-05-19T18:21:54.518Z,88.12
2023-05-19T18:24:21.464Z,88.55
2023-05-19T18:26:49.638Z,89.41
2023-05-19T18:29:16.342Z,89.95
2023-05-19T18:31:43.087Z,90.55
2023-05-19T18:34:10.169Z,87.80
2023-05-19T18:36:36.898Z,90.38
2023-05-19T18:39:03.752Z,89.75
2023-05-19T18:41:30.797Z,89.47
2023-05-19T18:43:58.899Z,92.60
2023-05-19T18:46:26.428Z,90.37
2023-05-19T18:48:53.305Z,90.71
2023-05-19T18:51:20.006Z,91.41
2023-05-19T18:53:49.918Z,91.96
2023-05-19T18:56:22.898Z,92.00
2023-05-19T18:58:49.591Z,92.42
2023-05-19T19:01:17.903Z,92.38
2023-05-19T19:03:45.058Z,92.18
2023-05-19T19:06:11.816Z,93.10
2023-05-19T19:08:38.509Z,93.29
2023-05-19T19:11:06.118Z,93.13
2023-05-19T19:13:32.856Z,92.96
2023-05-19T19:15:59.568Z,93.14
2023-05-19T19:18:27.958Z,93.27
2023-05-19T19:20:54.776Z,93.76
2023-05-19T19:23:21.530Z,94.21
2023-05-19T19:25:48.489Z,93.75
2023-05-19T19:30:50.810Z,94.46
2023-05-19T19:33:17.980Z,94.10
2023-05-19T19:35:46.618Z,94.43
2023-05-19T19:38:13.691Z,94.15
2023-05-19T19:40:40.410Z,94.18
2023-05-19T19:43:09.295Z,93.36
2023-05-19T19:45:39.142Z,94.08
2023-05-19T19:48:06.807Z,93.77
2023-05-19T19:50:33.735Z,94.09
2023-05-19T19:53:02.020Z,94.33
2023-05-19T19:55:28.754Z,94.24
2023-05-19T19:57:55.791Z,94.51
2023-05-19T20:00:22.798Z,94.41
2023-05-19T20:03:03.636Z,93.95
2023-05-19T20:05:31.949Z,94.48
2023-05-19T20:07:58.655Z,94.41
2023-05-19T20:10:26.857Z,94.42
2023-05-19T20:12:53.711Z,94.21
2023-05-19T20:15:20.552Z,94.15
2023-05-19T20:17:47.255Z,94.37
2023-05-19T20:20:14.328Z,94.72
2023-05-19T20:22:41.025Z,94.48
2023-05-19T20:25:08.654Z,94.97
2023-05-19T20:27:37.159Z,95.31
2023-05-19T20:30:04.369Z,95.12
2023-05-19T20:32:31.145Z,94.86
2023-05-19T20:34:58.359Z,94.67
2023-05-19T20:37:25.064Z,94.88
2023-05-19T20:39:52.044Z,94.21
2023-05-19T20:42:18.754Z,94.45
2023-05-19T20:44:47.209Z,94.52
2023-05-19T20:47:13.976Z,94.04
2023-05-19T20:49:40.783Z,94.00
2023-05-19T20:52:08.037Z,93.62
2023-05-19T20:54:34.775Z,93.75
2023-05-19T20:57:01.704Z,93.92
2023-05-19T20:59:28.465Z,94.16
2023-05-19T21:01:57.083Z,94.27
2023-05-19T21:04:23.926Z,94.10
2023-05-19T21:06:50.685Z,94.63
2023-05-19T21:09:18.138Z,94.64
2023-05-19T21:11:45.100Z,95.31
2023-05-19T21:14:11.927Z,95.33
2023-05-19T21:16:38.735Z,96.23
2023-05-19T21:19:08.846Z,96.62
2023-05-19T21:21:35.824Z,97.07
2023-05-19T21:24:02.769Z,97.27
2023-05-19T21:26:29.511Z,96.61
2023-05-19T21:28:56.240Z,97.44
2023-05-19T21:31:23.074Z,96.95
2023-05-19T21:33:50.041Z,97.19
2023-05-19T21:36:18.157Z,97.76
2023-05-19T21:38:44.903Z,97.63
2023-05-19T21:41:11.734Z,96.37
2023-05-19T21:43:38.418Z,96.53
2023-05-19T21:46:05.198Z,96.24
2023-05-19T21:48:31.969Z,96.48
2023-05-19T21:50:58.692Z,97.46
2023-05-19T21:53:27.125Z,96.60
2023-05-19T21:55:53.859Z,97.57
2023-05-19T21:58:20.559Z,98.16
2023-05-19T22:00:50.069Z,97.85
2023-05-19T22:03:17.594Z,99.04
2023-05-19T22:05:48.486Z,98.89
2023-05-19T22:08:15.280Z,98.82
2023-05-19T22:10:43.535Z,98.57
2023-05-19T22:13:10.249Z,97.85
2023-05-19T22:15:37.927Z,98.12
2023-05-19T22:18:04.650Z,97.96
2023-05-19T22:20:31.604Z,97.86
2023-05-19T22:22:58.520Z,98.24
2023-05-19T22:25:25.290Z,98.01
2023-05-19T22:27:53.521Z,98.33
2023-05-19T22:30:20.821Z,98.07
2023-05-19T22:32:47.753Z,98.30
2023-05-19T22:35:14.446Z,98.60
2023-05-19T22:37:41.165Z,98.56
2023-05-19T22:40:08.798Z,97.86
2023-05-19T22:42:35.559Z,97.93
2023-05-19T22:45:04.187Z,98.53
2023-05-19T22:47:31.066Z,96.51
2023-05-19T22:49:58.051Z,95.73
2023-05-19T22:52:24.757Z,95.13
2023-05-19T22:54:51.526Z,95.80
2023-05-19T22:57:18.594Z,94.77
2023-05-19T22:59:45.324Z,94.99
2023-05-19T23:02:13.445Z,93.99
2023-05-19T23:04:40.220Z,93.86
2023-05-19T23:07:06.974Z,94.36
2023-05-19T23:09:33.726Z,93.69
2023-05-19T23:12:00.467Z,93.79
2023-05-19T23:14:27.433Z,94.01
2023-05-19T23:16:54.284Z,93.61
2023-05-19T23:19:22.481Z,93.90
2023-05-19T23:21:49.245Z,93.75
2023-05-19T23:24:16.009Z,93.57
2023-05-19T23:26:42.761Z,93.34
2023-05-19T23:29:11.194Z,94.19
2023-05-19T23:31:38.150Z,94.14
2023-05-19T23:34:04.875Z,94.38
2023-05-19T23:36:32.987Z,94.21
2023-05-19T23:39:00.031Z,94.11
2023-05-19T23:41:26.838Z,95.04
2023-05-19T23:43:53.615Z,94.84
2023-05-19T23:46:20.430Z,95.16
2023-05-19T23:48:47.270Z,94.86
2023-05-19T23:51:13.989Z,95.13
2023-05-19T23:53:42.201Z,94.97
2023-05-19T23:56:08.904Z,94.92
2023-05-19T23:58:35.564Z,94.94
